Time;durP1;ratioP1;P1;durP2;ratioP2;P2;SDS_P1;SDS_P2;PMS_P1;PMS_P2;Temp;Humidity;BMP_temperature;BMP_pressure;BME280_temperature;BME280_humidity;BME280_pressure;Samples;Min_cycle;Max_cycle;Signal;HPM_P1;HPM_P2
2021/05/23 00:01:07;;;;;;;13.27;7.18;;;;;;;15.28;56.31;99611.94;4944033;29;20044;-58
2021/05/23 00:03:33;;;;;;;16.40;7.70;;;;;;;15.28;56.25;99609.31;4943841;29;20320;-58
2021/05/23 00:06:01;;;;;;;14.18;7.43;;;;;;;15.26;56.56;99610.28;4944011;29;20348;-58
2021/05/23 00:08:27;;;;;;;15.90;7.95;;;;;;;15.22;56.67;99612.19;4943934;29;20099;-58
2021/05/23 00:10:59;;;;;;;12.30;6.65;;;;;;;15.18;56.43;99606.25;4935979;29;20024;-58
2021/05/23 00:13:29;;;;;;;9.93;6.55;;;;;;;15.00;55.83;99602.63;4943853;29;20034;-58
2021/05/23 00:15:54;;;;;;;8.73;6.47;;;;;;;15.09;55.88;99608.38;4936436;29;20040;-59
2021/05/23 00:18:22;;;;;;;11.68;6.10;;;;;;;14.62;55.74;99523.38;4943882;29;20039;-58
2021/05/23 00:20:49;;;;;;;14.68;6.63;;;;;;;15.10;57.42;99610.94;4943809;29;20091;-58
2021/05/23 00:23:15;;;;;;;10.25;6.55;;;;;;;14.98;57.95;99609.69;4944347;29;20032;-58
2021/05/23 00:25:41;;;;;;;11.32;6.47;;;;;;;15.00;57.88;99602.63;4947497;29;20043;-58
2021/05/23 00:28:08;;;;;;;11.23;6.13;;;;;;;15.05;58.29;99612.03;4947849;29;20078;-58
2021/05/23 00:30:35;;;;;;;10.13;6.03;;;;;;;15.08;57.79;99604.94;4947468;29;20114;-58
2021/05/23 00:33:02;;;;;;;14.25;6.82;;;;;;;14.99;57.34;99608.78;4947596;28;20443;-58
2021/05/23 00:35:29;;;;;;;13.48;6.78;;;;;;;14.84;58.58;99612.00;4946451;29;20220;-59
2021/05/23 00:37:55;;;;;;;12.32;6.50;;;;;;;14.78;57.86;99599.22;4947320;29;20032;-59
2021/05/23 00:40:22;;;;;;;11.93;6.30;;;;;;;14.84;58.68;99596.38;4947419;28;20039;-59
2021/05/23 00:42:47;;;;;;;8.95;5.97;;;;;;;14.94;57.42;99594.22;4946157;29;20066;-60
2021/05/23 00:45:16;;;;;;;12.40;8.10;;;;;;;14.89;57.42;99599.63;4945930;29;20028;-59
2021/05/23 00:47:43;;;;;;;11.15;6.90;;;;;;;14.87;58.04;99585.81;4947000;29;20027;-58
2021/05/23 00:50:11;;;;;;;14.65;8.02;;;;;;;14.65;57.34;99547.56;4947270;29;20031;-58
2021/05/23 00:52:38;;;;;;;17.20;8.32;;;;;;;14.57;57.11;99541.78;4947086;29;20027;-58
2021/05/23 00:55:05;;;;;;;16.45;8.10;;;;;;;14.82;57.46;99590.34;4947120;29;20058;-58
2021/05/23 00:57:32;;;;;;;16.00;8.55;;;;;;;14.83;57.80;99592.88;4946905;29;20169;-58
2021/05/23 00:59:57;;;;;;;16.65;9.07;;;;;;;14.88;57.47;99587.50;4947084;29;20036;-58
2021/05/23 01:02:43;;;;;;;16.85;9.38;;;;;;;14.86;57.77;99589.31;4942567;29;20059;-58
2021/05/23 01:05:11;;;;;;;16.48;9.82;;;;;;;14.70;57.91;99596.06;4941341;29;20035;-58
2021/05/23 01:07:40;;;;;;;17.23;10.75;;;;;;;14.40;58.14;99542.47;4946842;29;20031;-58
2021/05/23 01:10:09;;;;;;;19.00;11.23;;;;;;;14.69;57.88;99581.34;4946922;29;20066;-58
2021/05/23 01:12:53;;;;;;;15.00;11.13;;;;;;;14.73;58.31;99588.13;4946744;29;20035;-57
2021/05/23 01:15:39;;;;;;;15.43;10.60;;;;;;;14.27;58.07;99536.88;4946861;29;20036;-58
2021/05/23 01:18:19;;;;;;;16.30;10.65;;;;;;;14.64;59.08;99594.56;4940691;29;20225;-58
2021/05/23 01:20:50;;;;;;;13.18;9.85;;;;;;;14.20;59.08;99543.25;4946724;29;20099;-59
2021/05/23 01:23:19;;;;;;;17.08;10.25;;;;;;;14.48;59.11;99599.50;4946592;29;20027;-58
2021/05/23 01:25:50;;;;;;;14.50;9.73;;;;;;;14.61;59.15;99605.06;4946294;29;20335;-58
2021/05/23 01:28:17;;;;;;;12.50;8.88;;;;;;;14.63;57.97;99588.47;4946778;29;20043;-59
2021/05/23 01:30:46;;;;;;;12.73;9.43;;;;;;;14.64;59.09;99603.22;4946476;28;20102;-58
2021/05/23 01:33:15;;;;;;;13.40;8.40;;;;;;;14.20;58.64;99531.97;4946362;29;20067;-58
2021/05/23 01:35:46;;;;;;;12.48;8.65;;;;;;;14.53;58.67;99596.72;4944639;29;20537;-57
2021/05/23 01:38:14;;;;;;;14.73;8.48;;;;;;;14.56;58.54;99600.03;4946221;29;20118;-57
2021/05/23 01:40:42;;;;;;;10.30;7.10;;;;;;;14.63;57.71;99603.28;4945150;29;20170;-57
2021/05/23 01:43:09;;;;;;;13.60;8.07;;;;;;;14.59;58.24;99607.75;4946487;29;20039;-58
2021/05/23 01:45:36;;;;;;;10.30;8.10;;;;;;;14.69;59.18;99612.63;4946117;29;20094;-58
2021/05/23 01:48:04;;;;;;;8.95;7.32;;;;;;;14.53;59.66;99615.78;4946102;29;20249;-58
2021/05/23 01:50:30;;;;;;;13.43;8.52;;;;;;;14.38;59.33;99608.56;4946019;29;20039;-58
2021/05/23 01:53:01;;;;;;;12.25;7.28;;;;;;;14.48;58.89;99607.31;4946133;29;20035;-59
2021/05/23 01:55:28;;;;;;;14.50;8.13;;;;;;;14.42;59.59;99612.75;4946197;29;20028;-58
2021/05/23 01:57:55;;;;;;;12.88;7.47;;;;;;;14.49;59.36;99609.88;4938391;29;20085;-58
2021/05/23 02:00:29;;;;;;;12.52;7.93;;;;;;;14.33;60.20;99613.94;4944783;29;20054;-58
2021/05/23 02:03:09;;;;;;;11.68;7.43;;;;;;;14.52;59.01;99631.50;4945971;29;20090;-58
2021/05/23 02:05:39;;;;;;;11.10;6.68;;;;;;;14.37;59.98;99589.47;4945703;29;20029;-58
2021/05/23 02:08:07;;;;;;;9.38;6.82;;;;;;;14.57;60.25;99608.72;4945757;29;20339;-58
2021/05/23 02:10:33;;;;;;;9.18;6.22;;;;;;;14.57;59.98;99624.34;4945573;29;20103;-58
2021/05/23 02:13:03;;;;;;;14.15;7.28;;;;;;;14.28;59.22;99567.25;4960673;29;20026;-58
2021/05/23 02:15:29;;;;;;;10.77;6.72;;;;;;;14.63;60.15;99617.16;4945821;29;20036;-59
2021/05/23 02:17:55;;;;;;;15.13;7.32;;;;;;;14.72;59.13;99609.88;4945559;29;20036;-59
2021/05/23 02:20:24;;;;;;;12.70;6.85;;;;;;;14.79;58.72;99630.44;4945407;29;20082;-58
2021/05/23 02:22:51;;;;;;;14.82;6.97;;;;;;;14.83;59.03;99615.53;4945375;29;20090;-58
2021/05/23 02:25:21;;;;;;;13.02;7.07;;;;;;;14.41;59.73;99567.63;4945636;29;20023;-58
2021/05/23 02:27:50;;;;;;;12.48;7.38;;;;;;;14.29;60.43;99557.66;4944318;29;20035;-58
2021/05/23 02:30:40;;;;;;;11.80;7.07;;;;;;;14.76;60.89;99614.06;4944254;29;20031;-58
2021/05/23 02:33:10;;;;;;;10.73;6.90;;;;;;;14.58;60.41;99556.53;4942817;29;20343;-58
2021/05/23 02:35:38;;;;;;;11.02;7.10;;;;;;;14.97;60.08;99614.97;4945358;29;20031;-59
2021/05/23 02:38:06;;;;;;;13.27;7.03;;;;;;;15.01;60.20;99608.72;4944163;29;20031;-59
2021/05/23 02:40:32;;;;;;;14.00;7.40;;;;;;;15.10;59.35;99607.50;4944706;29;20107;-59
2021/05/23 02:43:00;;;;;;;15.45;6.85;;;;;;;15.14;59.63;99614.28;4945154;29;20038;-59
2021/05/23 02:45:26;;;;;;;10.68;6.95;;;;;;;15.15;59.17;99618.59;4927735;29;20043;-59
2021/05/23 02:47:53;;;;;;;16.00;6.93;;;;;;;15.08;57.75;99610.16;4944583;29;20027;-58
2021/05/23 02:50:31;;;;;;;12.27;6.55;;;;;;;15.25;58.10;99591.19;4943953;29;20075;-59
2021/05/23 02:52:57;;;;;;;12.23;6.72;;;;;;;15.42;58.82;99607.88;4937930;29;20040;-58
2021/05/23 02:55:24;;;;;;;16.48;6.35;;;;;;;15.46;56.57;99606.84;4944974;29;20042;-58
2021/05/23 02:57:49;;;;;;;13.50;6.60;;;;;;;15.38;59.03;99612.41;4944902;29;20032;-59
2021/05/23 03:00:18;;;;;;;9.23;5.90;;;;;;;15.49;57.92;99604.09;4944763;29;20371;-59
2021/05/23 03:02:44;;;;;;;14.30;6.70;;;;;;;15.68;57.58;99604.16;4943627;29;20038;-59
2021/05/23 03:05:13;;;;;;;14.63;6.65;;;;;;;15.73;57.80;99606.56;4945012;29;20070;-58
2021/05/23 03:07:42;;;;;;;12.00;6.25;;;;;;;15.56;57.15;99550.69;4943647;29;20091;-58
2021/05/23 03:10:13;;;;;;;10.32;5.25;;;;;;;15.56;55.52;99542.88;4944456;29;20028;-59
2021/05/23 03:12:40;;;;;;;9.80;5.78;;;;;;;15.96;56.20;99598.59;4944546;29;20087;-59
2021/05/23 03:15:09;;;;;;;12.63;6.53;;;;;;;16.04;56.52;99599.06;4944606;29;20035;-59
2021/05/23 03:17:34;;;;;;;10.68;6.63;;;;;;;16.15;56.77;99595.13;4944514;29;20043;-60
2021/05/23 03:20:13;;;;;;;9.30;5.15;;;;;;;16.12;56.09;99590.91;4944483;29;20055;-60
2021/05/23 03:22:40;;;;;;;11.45;5.93;;;;;;;16.12;54.63;99588.28;4944845;29;20132;-60
2021/05/23 03:25:09;;;;;;;11.20;5.53;;;;;;;15.86;54.50;99517.19;4944406;29;20062;-57
2021/05/23 03:27:36;;;;;;;11.85;5.82;;;;;;;16.08;54.11;99573.66;4944204;29;20066;-58
2021/05/23 03:30:04;;;;;;;8.63;5.90;;;;;;;16.21;54.59;99573.94;4944204;29;20035;-58
2021/05/23 03:32:30;;;;;;;10.35;5.72;;;;;;;16.24;54.11;99592.09;4944272;29;20036;-58
2021/05/23 03:34:55;;;;;;;9.57;5.75;;;;;;;16.38;53.92;99589.69;4944229;29;20031;-59
2021/05/23 03:37:21;;;;;;;12.30;5.57;;;;;;;16.42;54.54;99584.28;4944265;29;20028;-58
2021/05/23 03:39:47;;;;;;;8.48;5.45;;;;;;;16.46;55.45;99581.50;4944099;29;20039;-58
2021/05/23 03:42:13;;;;;;;11.75;5.93;;;;;;;16.48;53.63;99582.25;4944126;29;20043;-58
2021/05/23 03:44:39;;;;;;;9.13;5.97;;;;;;;16.56;53.27;99587.13;4944207;29;20039;-59
2021/05/23 03:47:05;;;;;;;10.02;5.90;;;;;;;16.63;55.12;99588.53;4944111;29;20032;-58
2021/05/23 03:49:31;;;;;;;8.65;5.53;;;;;;;16.74;53.10;99585.38;4943908;29;20224;-58
2021/05/23 03:51:56;;;;;;;11.30;5.50;;;;;;;16.82;53.82;99587.63;4944127;29;20304;-58
2021/05/23 03:54:22;;;;;;;8.05;5.57;;;;;;;16.80;52.91;99587.72;4943931;29;20032;-59
2021/05/23 03:56:48;;;;;;;13.85;5.70;;;;;;;16.84;52.62;99572.69;4944027;29;20035;-58
2021/05/23 03:59:14;;;;;;;7.55;5.35;;;;;;;16.94;53.47;99580.97;4944159;29;20027;-57
2021/05/23 04:01:39;;;;;;;8.15;5.22;;;;;;;17.02;52.52;99590.13;4943975;29;20220;-58
2021/05/23 04:04:07;;;;;;;8.80;5.22;;;;;;;16.98;52.90;99591.19;4937859;29;20028;-58
2021/05/23 04:06:32;;;;;;;7.03;5.40;;;;;;;16.92;52.31;99578.44;4943782;29;20035;-59
2021/05/23 04:08:58;;;;;;;8.50;5.40;;;;;;;17.04;52.29;99577.81;4943989;29;20038;-58
2021/05/23 04:11:31;;;;;;;10.65;5.20;;;;;;;17.20;51.62;99587.50;4943798;29;20031;-59
2021/05/23 04:13:57;;;;;;;9.02;5.10;;;;;;;17.20;52.01;99583.13;4936834;29;20078;-59
2021/05/23 04:16:22;;;;;;;9.30;4.97;;;;;;;17.00;51.85;99529.19;4943799;29;20317;-58
2021/05/23 04:18:48;;;;;;;9.45;5.28;;;;;;;17.50;52.15;99579.00;4943594;29;20040;-59
2021/05/23 04:21:14;;;;;;;7.22;4.80;;;;;;;17.61;51.00;99587.16;4943713;29;20234;-59
2021/05/23 04:23:40;;;;;;;11.70;5.00;;;;;;;17.67;52.14;99572.91;4943570;29;20039;-59
2021/05/23 04:26:06;;;;;;;11.98;5.38;;;;;;;17.66;50.88;99582.53;4943831;29;20035;-59
2021/05/23 04:28:32;;;;;;;10.50;5.35;;;;;;;17.51;51.21;99581.53;4943692;29;20163;-59
2021/05/23 04:30:59;;;;;;;9.77;4.70;;;;;;;17.60;50.22;99549.66;4943616;29;20031;-59
2021/05/23 04:33:25;;;;;;;11.13;5.07;;;;;;;17.74;50.79;99569.88;4943560;29;20309;-59
2021/05/23 04:35:51;;;;;;;8.60;5.07;;;;;;;17.94;50.49;99567.97;4943443;29;20034;-59
2021/05/23 04:38:17;;;;;;;12.63;5.00;;;;;;;18.09;50.38;99577.66;4943265;29;20031;-59
2021/05/23 04:40:43;;;;;;;8.05;4.60;;;;;;;18.24;50.09;99567.25;4943196;29;20045;-59
2021/05/23 04:43:08;;;;;;;6.28;4.05;;;;;;;18.32;49.86;99567.69;4943835;29;20027;-59
2021/05/23 04:45:36;;;;;;;9.73;4.10;;;;;;;18.45;48.50;99573.06;4943380;29;20032;-60
2021/05/23 04:48:03;;;;;;;6.07;3.47;;;;;;;18.75;47.31;99557.38;4943258;29;20076;-59
2021/05/23 04:50:29;;;;;;;8.52;3.80;;;;;;;19.25;46.57;99559.78;4943515;29;20348;-60
2021/05/23 04:52:55;;;;;;;7.30;3.78;;;;;;;19.33;45.31;99562.81;4943431;29;20034;-60
2021/05/23 04:55:21;;;;;;;6.53;3.97;;;;;;;19.17;45.38;99530.50;4943347;29;20039;-59
2021/05/23 04:57:47;;;;;;;6.72;3.85;;;;;;;19.48;46.12;99554.00;4943103;29;20039;-59
2021/05/23 05:00:14;;;;;;;7.38;3.20;;;;;;;19.29;42.79;99556.03;4943244;29;20148;-60
2021/05/23 05:02:41;;;;;;;7.22;3.08;;;;;;;19.36;42.66;99554.75;4943156;29;20040;-59
2021/05/23 05:05:09;;;;;;;5.68;3.10;;;;;;;19.48;42.35;99555.78;4943423;29;20095;-60
2021/05/23 05:07:35;;;;;;;4.68;3.05;;;;;;;19.33;42.19;99554.94;4943125;28;20091;-58
2021/05/23 05:10:02;;;;;;;6.93;2.95;;;;;;;19.52;42.68;99551.19;4945096;29;20038;-58
2021/05/23 05:12:27;;;;;;;9.05;3.45;;;;;;;19.73;41.47;99549.03;4946899;29;20079;-59
2021/05/23 05:14:53;;;;;;;3.88;2.88;;;;;;;19.81;41.59;99559.97;4946582;29;20036;-59
2021/05/23 05:17:19;;;;;;;8.80;3.28;;;;;;;19.99;41.88;99539.53;4946647;29;20024;-59
2021/05/23 05:19:45;;;;;;;5.55;3.00;;;;;;;20.25;41.71;99550.19;4946661;29;20091;-60
2021/05/23 05:22:10;;;;;;;6.63;2.97;;;;;;;20.15;41.65;99558.69;4946558;29;20047;-58
2021/05/23 05:24:36;;;;;;;4.85;3.13;;;;;;;20.20;41.25;99539.97;4946496;29;20031;-59
2021/05/23 05:27:02;;;;;;;5.85;3.25;;;;;;;20.25;40.68;99548.44;4946486;29;20035;-59
2021/05/23 05:29:28;;;;;;;5.35;2.70;;;;;;;20.30;40.93;99556.84;4946330;29;20102;-58
2021/05/23 05:31:53;;;;;;;4.50;2.50;;;;;;;20.53;39.65;99555.34;4946402;29;20039;-57
2021/05/23 05:34:19;;;;;;;5.47;2.58;;;;;;;20.30;38.45;99550.75;4946539;29;20086;-57
2021/05/23 05:36:46;;;;;;;2.90;2.40;;;;;;;20.84;38.38;99566.53;4946125;29;20241;-57
2021/05/23 05:39:12;;;;;;;4.07;1.95;;;;;;;20.56;38.27;99503.50;4946144;29;20063;-58
2021/05/23 05:41:38;;;;;;;4.88;2.17;;;;;;;20.83;38.28;99546.44;4946282;29;20308;-57
2021/05/23 05:44:04;;;;;;;3.33;2.45;;;;;;;20.85;39.92;99547.19;4946030;29;20024;-57
2021/05/23 05:46:30;;;;;;;3.90;2.40;;;;;;;20.77;38.84;99533.69;4961024;29;20094;-57
2021/05/23 05:48:55;;;;;;;3.25;2.00;;;;;;;20.80;38.04;99546.63;4946145;29;20032;-57
2021/05/23 05:51:21;;;;;;;5.25;2.20;;;;;;;20.66;37.73;99552.78;4945895;29;20031;-58
2021/05/23 05:53:47;;;;;;;4.88;2.42;;;;;;;20.89;38.79;99544.34;4946132;29;20106;-58
2021/05/23 05:56:13;;;;;;;5.43;1.92;;;;;;;20.96;38.79;99541.19;4945587;29;20031;-58
2021/05/23 05:58:39;;;;;;;4.68;1.80;;;;;;;20.93;37.64;99540.56;4945800;29;20053;-58
2021/05/23 06:01:05;;;;;;;3.83;2.05;;;;;;;21.10;38.20;99528.91;4944445;29;20031;-57
2021/05/23 06:03:31;;;;;;;4.10;2.20;;;;;;;21.28;38.45;99522.38;4941345;29;20256;-57
2021/05/23 06:05:58;;;;;;;5.13;1.92;;;;;;;21.24;37.13;99525.31;4945784;29;20216;-56
2021/05/23 06:08:24;;;;;;;6.97;1.90;;;;;;;21.27;35.41;99522.47;4945799;29;20149;-57
2021/05/23 06:10:49;;;;;;;4.47;1.90;;;;;;;21.27;36.20;99522.47;4945731;28;20288;-58
2021/05/23 06:13:15;;;;;;;3.25;1.77;;;;;;;21.41;36.80;99511.81;4944692;29;20426;-57
2021/05/23 06:15:41;;;;;;;2.95;1.83;;;;;;;21.62;37.23;99500.75;4944556;29;20036;-57
2021/05/23 06:18:07;;;;;;;2.97;2.10;;;;;;;21.67;36.49;99502.09;4945670;29;20075;-57
2021/05/23 06:20:33;;;;;;;4.93;2.20;;;;;;;21.58;38.12;99499.28;4927257;29;20118;-57
2021/05/23 06:22:59;;;;;;;3.75;2.08;;;;;;;21.76;37.33;99499.78;4944627;29;20042;-58
2021/05/23 06:25:25;;;;;;;3.30;1.60;;;;;;;21.58;37.21;99491.38;4944199;29;20031;-58
2021/05/23 06:27:51;;;;;;;7.13;2.40;;;;;;;21.62;37.60;99493.72;4944830;29;20111;-58
2021/05/23 06:30:18;;;;;;;4.25;1.77;;;;;;;21.52;37.60;99488.25;4944698;29;20277;-58
2021/05/23 06:32:44;;;;;;;3.25;1.88;;;;;;;21.62;37.04;99493.72;4943160;29;20261;-57
2021/05/23 06:35:11;;;;;;;5.35;1.80;;;;;;;21.76;37.54;99495.34;4944494;29;20333;-57
2021/05/23 06:37:38;;;;;;;2.63;1.55;;;;;;;21.85;37.04;99483.31;4944496;29;20047;-57
2021/05/23 06:40:04;;;;;;;4.93;1.40;;;;;;;22.04;34.63;99488.09;4945167;29;20094;-58
2021/05/23 06:42:30;;;;;;;5.28;1.60;;;;;;;22.21;34.26;99479.78;4944834;29;20592;-58
2021/05/23 06:44:56;;;;;;;6.03;1.70;;;;;;;22.49;34.17;99480.44;4945017;29;20034;-59
2021/05/23 06:47:23;;;;;;;6.60;1.52;;;;;;;22.28;34.90;99474.09;4944810;29;20027;-57
2021/05/23 06:49:48;;;;;;;3.17;1.48;;;;;;;22.57;35.59;99478.06;4944726;29;20045;-57
2021/05/23 06:52:14;;;;;;;1.92;1.42;;;;;;;22.40;34.81;99467.91;4944751;29;20277;-57
2021/05/23 06:54:40;;;;;;;3.97;1.30;;;;;;;22.39;34.04;99482.09;4944422;29;20355;-57
2021/05/23 06:57:06;;;;;;;2.35;1.85;;;;;;;22.42;34.19;99468.66;4943697;29;20023;-58
2021/05/23 06:59:32;;;;;;;3.25;1.48;;;;;;;21.91;33.05;99476.75;4944318;29;20219;-57
2021/05/23 07:01:57;;;;;;;3.33;1.50;;;;;;;22.04;33.43;99472.28;4958704;29;20035;-58
2021/05/23 07:04:24;;;;;;;2.58;1.55;;;;;;;21.99;34.55;99458.56;4943855;29;20031;-58
2021/05/23 07:06:50;;;;;;;4.45;1.50;;;;;;;22.13;35.78;99461.03;4942846;29;20031;-58
2021/05/23 07:09:16;;;;;;;5.53;1.30;;;;;;;22.11;34.29;99462.97;4944075;29;20027;-58
2021/05/23 07:11:42;;;;;;;6.32;1.42;;;;;;;22.10;33.65;99456.00;4943857;29;20043;-58
2021/05/23 07:14:07;;;;;;;3.97;1.65;;;;;;;22.13;34.87;99439.09;4943926;29;20027;-58
2021/05/23 07:16:33;;;;;;;2.40;1.30;;;;;;;22.17;33.06;99435.28;4943941;29;20061;-60
2021/05/23 07:18:59;;;;;;;6.18;1.60;;;;;;;22.08;33.29;99431.53;4944253;29;20244;-57
2021/05/23 07:21:25;;;;;;;1.95;1.20;;;;;;;22.37;34.06;99447.03;4944331;29;20031;-58
2021/05/23 07:23:51;;;;;;;3.92;1.58;;;;;;;22.37;34.08;99436.47;4944225;29;20035;-59
2021/05/23 07:26:18;;;;;;;4.03;1.20;;;;;;;22.49;34.06;99443.47;4943437;29;20217;-58
2021/05/23 07:28:43;;;;;;;3.92;1.52;;;;;;;22.06;33.88;99442.19;4944253;29;20027;-57
2021/05/23 07:31:09;;;;;;;3.83;1.15;;;;;;;22.24;34.67;99437.34;4944407;29;20027;-58
2021/05/23 07:33:35;;;;;;;3.95;1.40;;;;;;;22.16;34.63;99433.59;4943799;29;20308;-59
2021/05/23 07:36:02;;;;;;;6.30;1.60;;;;;;;22.15;34.15;99439.84;4944252;29;20057;-58
2021/05/23 07:38:27;;;;;;;4.30;1.58;;;;;;;22.40;35.11;99416.00;4944230;29;20095;-57
2021/05/23 07:40:54;;;;;;;3.65;1.60;;;;;;;22.65;35.00;99434.41;4936505;29;20046;-58
2021/05/23 07:43:20;;;;;;;5.07;1.60;;;;;;;22.29;33.39;99434.38;4944194;29;20023;-57
2021/05/23 07:45:47;;;;;;;4.00;1.33;;;;;;;22.62;34.17;99426.69;4944118;29;20197;-57
2021/05/23 07:48:13;;;;;;;2.65;1.13;;;;;;;22.68;33.33;99429.72;4943907;29;20036;-57
2021/05/23 07:50:39;;;;;;;2.25;1.20;;;;;;;22.55;33.17;99419.25;4943737;29;20209;-58
2021/05/23 07:53:05;;;;;;;1.33;0.95;;;;;;;22.83;33.73;99422.44;4943844;29;20082;-58
2021/05/23 07:55:31;;;;;;;2.78;1.33;;;;;;;23.02;33.55;99421.03;4943877;29;20115;-58
2021/05/23 07:57:57;;;;;;;7.53;1.20;;;;;;;22.77;32.37;99417.63;4943887;29;20027;-57
2021/05/23 08:00:22;;;;;;;4.70;1.33;;;;;;;22.62;33.15;99418.78;4943711;29;20038;-57
2021/05/23 08:02:48;;;;;;;3.83;1.50;;;;;;;22.55;32.87;99416.63;4943587;28;20032;-58
2021/05/23 08:05:14;;;;;;;3.47;1.48;;;;;;;22.88;33.87;99406.22;4943287;28;20023;-58
2021/05/23 08:07:40;;;;;;;2.75;2.15;;;;;;;22.70;33.84;99411.13;4943704;29;20275;-57
2021/05/23 08:10:06;;;;;;;8.30;1.27;;;;;;;22.58;33.19;99402.34;4943580;29;20034;-57
2021/05/23 08:12:32;;;;;;;5.78;4.45;;;;;;;22.64;32.85;99396.59;4958323;29;20103;-58
2021/05/23 08:14:59;;;;;;;2.10;1.48;;;;;;;22.44;33.50;99399.91;4943686;29;20036;-58
2021/05/23 08:17:26;;;;;;;2.70;1.33;;;;;;;22.75;33.62;99387.84;4943607;29;20087;-57
2021/05/23 08:19:51;;;;;;;3.00;1.30;;;;;;;22.65;33.48;99392.16;4943499;29;20047;-61
2021/05/23 08:22:17;;;;;;;21.23;14.73;;;;;;;22.51;34.49;99386.13;4943679;29;20102;-58
2021/05/23 08:24:43;;;;;;;5.68;1.35;;;;;;;22.74;34.79;99396.72;4926252;29;20059;-58
2021/05/23 08:27:09;;;;;;;5.43;1.40;;;;;;;22.71;32.93;99392.53;4943669;29;20030;-58
2021/05/23 08:29:34;;;;;;;7.00;1.70;;;;;;;22.71;33.98;99391.69;4943096;29;20028;-57
2021/05/23 08:32:01;;;;;;;3.28;1.27;;;;;;;22.38;34.47;99382.75;4943515;29;20138;-58
2021/05/23 08:34:27;;;;;;;3.78;1.30;;;;;;;22.54;34.67;99391.16;4943010;29;20153;-58
2021/05/23 08:36:54;;;;;;;6.15;1.40;;;;;;;22.77;33.90;99404.41;4943036;29;20031;-57
2021/05/23 08:39:19;;;;;;;7.63;1.55;;;;;;;22.73;32.94;99406.47;4943545;29;20069;-58
2021/05/23 08:41:47;;;;;;;6.70;2.05;;;;;;;22.36;32.64;99408.41;4942093;29;20035;-59
2021/05/23 08:44:21;;;;;;;5.10;1.50;;;;;;;22.44;32.76;99399.91;4943574;29;20032;-58
2021/05/23 08:46:49;;;;;;;2.75;1.38;;;;;;;22.42;32.35;99410.59;4946970;29;21035;-59
2021/05/23 08:49:17;;;;;;;5.05;1.85;;;;;;;22.57;33.39;99385.69;4946896;29;20264;-57
2021/05/23 08:51:43;;;;;;;3.00;1.40;;;;;;;22.51;32.51;99391.41;4947110;29;20035;-58
2021/05/23 08:54:09;;;;;;;2.92;1.20;;;;;;;22.53;32.31;99393.94;4947148;29;20031;-57
2021/05/23 08:56:35;;;;;;;3.83;1.70;;;;;;;22.70;32.00;99392.63;4946939;29;20437;-58
2021/05/23 08:59:01;;;;;;;2.83;1.52;;;;;;;22.66;32.15;99378.00;4946979;29;20043;-58
2021/05/23 09:01:28;;;;;;;5.20;1.50;;;;;;;23.05;32.85;99378.50;4946985;29;20031;-58
2021/05/23 09:04:01;;;;;;;5.93;1.50;;;;;;;22.99;31.97;99331.44;4945020;29;20032;-58
2021/05/23 09:06:35;;;;;;;4.85;1.33;;;;;;;22.94;32.49;99371.41;4946981;29;20194;-58
2021/05/23 09:09:07;;;;;;;5.60;1.90;;;;;;;22.29;32.64;99339.41;4946928;29;20118;-58
2021/05/23 09:11:33;;;;;;;;;;;;;;;22.73;32.22;99380.06;4946999;29;20027;-58
2021/05/23 09:13:59;;;;;;;5.78;1.50;;;;;;;22.86;32.79;99371.16;4946809;29;20156;-58
2021/05/23 09:16:25;;;;;;;2.58;1.95;;;;;;;22.41;32.47;99374.59;4945210;29;20035;-57
2021/05/23 09:18:56;;;;;;;6.13;1.65;;;;;;;22.45;31.95;99328.53;4946263;29;20658;-58
2021/05/23 09:21:24;;;;;;;3.50;1.50;;;;;;;22.38;32.12;99380.09;4945162;29;20039;-59
2021/05/23 09:23:53;;;;;;;4.13;1.30;;;;;;;21.93;33.53;99370.19;4946212;29;20071;-58
2021/05/23 09:26:30;;;;;;;6.75;1.40;;;;;;;21.95;33.85;99314.69;4946093;28;20304;-58
2021/05/23 09:29:05;;;;;;;1.50;1.40;;;;;;;22.49;34.36;99371.34;4946052;29;20243;-59
2021/05/23 09:31:31;;;;;;;2.47;1.42;;;;;;;22.41;35.44;99353.47;4946352;29;20118;-58
2021/05/23 09:33:57;;;;;;;3.45;1.33;;;;;;;22.73;34.39;99358.94;4946575;29;20028;-58
2021/05/23 09:36:23;;;;;;;4.65;1.50;;;;;;;23.04;33.40;99360.97;4946401;28;20190;-58
2021/05/23 09:38:57;;;;;;;4.22;1.20;;;;;;;23.23;33.28;99353.31;4946343;29;20036;-58
2021/05/23 09:41:35;;;;;;;5.05;1.25;;;;;;;23.13;32.43;99349.72;4945944;29;20336;-58
2021/05/23 09:44:18;;;;;;;6.50;1.20;;;;;;;23.10;33.06;99355.19;4946392;29;20032;-58
2021/05/23 09:47:10;;;;;;;1.38;1.27;;;;;;;23.03;32.85;99346.94;4945924;29;20041;-58
2021/05/23 09:49:56;;;;;;;5.37;1.60;;;;;;;22.63;32.51;99351.84;4944884;29;20035;-58
2021/05/23 09:52:33;;;;;;;3.90;1.52;;;;;;;22.46;32.30;99309.13;4945776;29;20024;-58
2021/05/23 09:54:59;;;;;;;6.00;1.38;;;;;;;22.72;32.56;99340.56;4945976;29;20320;-58
2021/05/23 09:57:27;;;;;;;2.65;1.50;;;;;;;22.62;33.41;99348.38;4945843;29;20023;-58
2021/05/23 10:00:19;;;;;;;2.83;1.30;;;;;;;22.57;32.83;99338.16;4945623;29;20090;-59
2021/05/23 10:02:55;;;;;;;3.05;1.50;;;;;;;22.56;32.68;99336.47;4944373;29;20051;-58
2021/05/23 10:05:21;;;;;;;6.47;1.83;;;;;;;22.64;32.36;99332.41;4945762;29;20072;-57
2021/05/23 10:07:47;;;;;;;5.80;1.60;;;;;;;22.73;32.13;99334.31;4945719;29;20039;-58
2021/05/23 10:10:14;;;;;;;1.70;1.38;;;;;;;22.63;32.21;99310.44;4944708;29;20038;-58
2021/05/23 10:12:41;;;;;;;5.50;1.90;;;;;;;22.39;32.49;99284.16;4945273;29;20047;-58
2021/05/23 10:15:10;;;;;;;3.70;1.63;;;;;;;22.55;32.25;99324.22;4945262;29;20036;-58
2021/05/23 10:17:38;;;;;;;2.03;1.20;;;;;;;22.79;32.41;99319.78;4945253;29;20047;-58
2021/05/23 10:20:06;;;;;;;3.30;1.60;;;;;;;22.96;34.49;99311.41;4945335;29;20043;-58
2021/05/23 10:22:35;;;;;;;3.65;1.20;;;;;;;22.86;33.87;99306.00;4945065;29;20051;-58
2021/05/23 10:25:04;;;;;;;4.97;1.55;;;;;;;22.57;34.77;99255.47;4945325;29;20063;-58
2021/05/23 10:27:34;;;;;;;4.38;1.95;;;;;;;22.73;33.40;99292.94;4945212;29;20115;-58
2021/05/23 10:30:01;;;;;;;4.72;1.50;;;;;;;22.52;32.85;99306.00;4944881;29;20038;-59
2021/05/23 10:32:29;;;;;;;4.90;1.63;;;;;;;22.48;32.76;99279.97;4945006;29;20028;-58
2021/05/23 10:34:57;;;;;;;5.50;1.65;;;;;;;22.62;31.49;99298.19;4937428;29;20058;-59
2021/05/23 10:37:30;;;;;;;3.03;1.60;;;;;;;22.82;32.14;99312.47;4944936;29;20047;-57
2021/05/23 10:39:57;;;;;;;5.05;1.80;;;;;;;22.77;31.27;99285.59;4945043;29;20032;-58
2021/05/23 10:42:27;;;;;;;3.10;1.40;;;;;;;22.99;33.88;99292.66;4945100;29;20228;-57
2021/05/23 10:44:56;;;;;;;4.07;1.60;;;;;;;22.75;31.54;99292.81;4937382;29;20031;-58
2021/05/23 10:47:26;;;;;;;5.65;1.30;;;;;;;22.66;31.58;99298.78;4945029;29;20396;-58
2021/05/23 10:49:53;;;;;;;4.45;2.65;;;;;;;22.60;31.52;99294.00;4944269;29;20042;-58
2021/05/23 10:52:19;;;;;;;5.53;1.83;;;;;;;22.57;31.17;99290.66;4944832;29;20038;-58
2021/05/23 10:55:04;;;;;;;4.40;1.42;;;;;;;22.47;30.94;99283.56;4944882;29;20070;-58
2021/05/23 10:57:59;;;;;;;3.22;1.42;;;;;;;22.62;30.87;99269.16;4944993;29;20277;-58
2021/05/23 11:00:35;;;;;;;3.58;1.67;;;;;;;22.40;31.27;99223.34;4940237;29;20073;-59
2021/05/23 11:03:13;;;;;;;3.30;1.48;;;;;;;22.43;30.43;99214.31;4944448;29;20047;-61
2021/05/23 11:05:39;;;;;;;4.75;2.50;;;;;;;22.68;31.19;99266.03;4944446;29;20032;-59
2021/05/23 11:08:07;;;;;;;5.03;1.48;;;;;;;22.77;31.33;99276.84;4943555;29;20039;-58
2021/05/23 11:10:44;;;;;;;3.42;1.23;;;;;;;22.41;29.71;99213.63;4944181;29;20387;-57
2021/05/23 11:13:26;;;;;;;1.80;1.23;;;;;;;22.93;29.98;99272.88;4944350;29;20313;-58
2021/05/23 11:15:52;;;;;;;;;;;;;;;22.60;29.18;99260.50;4944725;29;20260;-58
2021/05/23 11:18:23;;;;;;;5.82;1.40;;;;;;;22.41;30.10;99226.81;4944625;29;19942;-58
2021/05/23 11:20:59;;;;;;;9.53;5.77;;;;;;;22.56;29.29;99217.69;4944533;29;20043;-58
2021/05/23 11:23:25;;;;;;;8.25;2.38;;;;;;;22.91;29.69;99266.00;4944264;29;20036;-60
2021/05/23 11:26:10;;;;;;;6.35;1.80;;;;;;;22.85;30.02;99217.16;4943867;29;20075;-58
2021/05/23 11:28:37;;;;;;;2.78;1.50;;;;;;;23.18;30.38;99257.69;4944074;29;20035;-57
2021/05/23 11:31:03;;;;;;;9.30;1.70;;;;;;;23.48;30.94;99255.34;4943641;29;20031;-57
2021/05/23 11:33:29;;;;;;;3.13;1.40;;;;;;;23.39;31.32;99239.25;4943985;29;20046;-58
2021/05/23 11:35:55;;;;;;;5.07;1.67;;;;;;;23.41;29.77;99247.88;4943185;29;20023;-57